createdAt,value
2019-05-26T00:00:56.464Z,13.60
2019-05-26T00:03:25.009Z,13.60
2019-05-26T00:05:53.755Z,13.60
2019-05-26T00:08:22.305Z,13.60
2019-05-26T00:10:51.898Z,13.60
2019-05-26T00:13:20.574Z,13.60
2019-05-26T00:15:49.194Z,13.60
2019-05-26T00:18:17.743Z,13.60
2019-05-26T00:20:46.366Z,13.60
2019-05-26T00:23:14.896Z,13.60
2019-05-26T00:25:43.384Z,13.60
2019-05-26T00:28:12.051Z,13.60
2019-05-26T00:30:40.621Z,13.60
2019-05-26T00:33:09.137Z,13.60
2019-05-26T00:35:37.899Z,13.60
2019-05-26T00:38:07.159Z,13.60
2019-05-26T00:40:37.033Z,13.60
2019-05-26T00:43:05.949Z,13.60
2019-05-26T00:45:34.676Z,13.60
2019-05-26T00:48:03.342Z,13.60
2019-05-26T00:50:33.091Z,13.60
2019-05-26T00:53:01.705Z,13.60
2019-05-26T00:55:30.437Z,13.60
2019-05-26T00:57:59.407Z,13.60
2019-05-26T01:00:42.230Z,13.60
2019-05-26T01:03:12.314Z,13.60
2019-05-26T01:05:41.221Z,13.60
2019-05-26T01:08:10.016Z,13.60
2019-05-26T01:10:39.240Z,13.60
2019-05-26T01:13:08.033Z,13.60
2019-05-26T01:15:36.749Z,13.60
2019-05-26T01:18:06.511Z,13.60
2019-05-26T01:20:36.125Z,13.60
2019-05-26T01:23:04.936Z,13.60
2019-05-26T01:25:33.645Z,13.60
2019-05-26T01:28:02.224Z,13.60
2019-05-26T01:30:37.050Z,13.60
2019-05-26T01:33:06.679Z,13.60
2019-05-26T01:35:39.240Z,13.60
2019-05-26T01:38:22.652Z,13.60
2019-05-26T01:40:46.712Z,13.60
2019-05-26T01:43:15.226Z,13.60
2019-05-26T01:45:43.726Z,13.60
2019-05-26T01:48:12.332Z,13.60
2019-05-26T01:50:41.228Z,13.60
2019-05-26T01:53:09.782Z,13.60
2019-05-26T01:55:38.607Z,13.60
2019-05-26T01:58:07.198Z,13.60
2019-05-26T02:00:35.945Z,13.70
2019-05-26T02:03:05.409Z,13.70
2019-05-26T02:05:33.945Z,13.70
2019-05-26T02:08:02.638Z,13.70
2019-05-26T02:10:31.587Z,13.80
2019-05-26T02:13:00.165Z,13.70
2019-05-26T02:15:29.025Z,13.80
2019-05-26T02:17:57.783Z,13.80
2019-05-26T02:20:26.676Z,13.90
2019-05-26T02:22:55.256Z,13.80
2019-05-26T02:25:24.798Z,13.80
2019-05-26T02:27:54.894Z,13.90
2019-05-26T02:30:24.566Z,13.90
2019-05-26T02:32:53.282Z,13.90
2019-05-26T02:35:22.560Z,13.90
2019-05-26T02:37:51.143Z,13.90
2019-05-26T02:40:21.217Z,13.90
2019-05-26T02:42:49.919Z,13.90
2019-05-26T02:45:21.112Z,13.90
2019-05-26T02:47:49.975Z,14.00
2019-05-26T02:50:19.266Z,14.00
2019-05-26T02:52:47.880Z,14.00
2019-05-26T02:55:17.801Z,14.00
2019-05-26T02:57:46.348Z,14.10
2019-05-26T03:00:17.184Z,14.10
2019-05-26T03:02:46.426Z,14.10
2019-05-26T03:05:15.395Z,14.10
2019-05-26T03:07:44.153Z,14.10
2019-05-26T03:10:14.958Z,14.10
2019-05-26T03:12:44.269Z,14.10
2019-05-26T03:15:14.642Z,14.10
2019-05-26T03:17:43.649Z,14.10
2019-05-26T03:20:14.245Z,14.10
2019-05-26T03:22:44.772Z,14.10
2019-05-26T03:25:13.923Z,14.10
2019-05-26T03:27:42.422Z,14.20
2019-05-26T03:30:11.358Z,14.20
2019-05-26T03:32:40.199Z,14.20
2019-05-26T03:35:09.589Z,14.20
2019-05-26T03:37:38.390Z,14.20
2019-05-26T03:40:09.341Z,14.20
2019-05-26T03:42:38.376Z,14.20
2019-05-26T03:45:08.957Z,14.30
2019-05-26T03:47:37.545Z,14.30
2019-05-26T03:50:09.646Z,14.30
2019-05-26T03:52:38.406Z,14.30
2019-05-26T03:55:07.811Z,14.40
2019-05-26T03:57:36.412Z,14.40
2019-05-26T04:00:06.845Z,14.40
2019-05-26T04:02:35.768Z,14.40
2019-05-26T04:05:06.199Z,14.40
2019-05-26T04:07:34.911Z,14.50
2019-05-26T04:10:06.422Z,14.50
2019-05-26T04:12:36.431Z,14.50
2019-05-26T04:15:07.773Z,14.50
2019-05-26T04:17:36.442Z,14.50
2019-05-26T04:20:06.725Z,14.50
2019-05-26T04:22:35.392Z,14.60
2019-05-26T04:25:05.584Z,14.60
2019-05-26T04:27:34.285Z,14.60
2019-05-26T04:30:03.125Z,14.60
2019-05-26T04:32:31.878Z,14.70
2019-05-26T04:35:00.526Z,14.60
2019-05-26T04:37:29.213Z,14.70
2019-05-26T04:39:58.525Z,14.70
2019-05-26T04:42:27.378Z,14.70
2019-05-26T04:44:56.010Z,14.70
2019-05-26T04:47:24.753Z,14.70
2019-05-26T04:49:53.224Z,14.70
2019-05-26T04:52:22.023Z,14.70
2019-05-26T04:54:50.805Z,14.80
2019-05-26T04:57:19.364Z,14.80
2019-05-26T04:59:47.875Z,14.80
2019-05-26T05:02:16.916Z,14.90
2019-05-26T05:04:45.404Z,14.90
2019-05-26T05:07:13.966Z,14.90
2019-05-26T05:09:43.867Z,14.90
2019-05-26T05:12:12.738Z,15.00
2019-05-26T05:14:41.283Z,15.00
2019-05-26T05:17:10.173Z,15.00
2019-05-26T05:19:38.661Z,15.00
2019-05-26T05:22:07.452Z,15.10
2019-05-26T05:24:36.227Z,15.10
2019-05-26T05:27:04.834Z,15.10
2019-05-26T05:29:33.422Z,15.10
2019-05-26T05:32:02.440Z,15.10
2019-05-26T05:34:30.991Z,15.20
2019-05-26T05:36:59.627Z,15.20
2019-05-26T05:39:28.703Z,15.30
2019-05-26T05:41:57.371Z,15.30
2019-05-26T05:44:26.208Z,15.30
2019-05-26T05:46:54.928Z,15.40
2019-05-26T05:49:23.501Z,15.40
2019-05-26T05:51:52.226Z,15.40
2019-05-26T05:54:21.095Z,15.50
2019-05-26T05:56:49.656Z,15.50
2019-05-26T05:59:18.181Z,15.60
2019-05-26T06:01:47.210Z,15.60
2019-05-26T06:04:15.705Z,15.60
2019-05-26T06:06:44.283Z,15.60
2019-05-26T06:09:12.999Z,15.60
2019-05-26T06:11:41.673Z,15.70
2019-05-26T06:14:10.215Z,15.70
2019-05-26T06:16:38.797Z,15.70
2019-05-26T06:19:07.414Z,15.80
2019-05-26T06:21:36.428Z,15.80
2019-05-26T06:24:05.634Z,15.80
2019-05-26T06:26:34.124Z,15.90
2019-05-26T06:29:02.580Z,15.90
2019-05-26T06:31:31.778Z,16.00
2019-05-26T06:34:00.393Z,16.00
2019-05-26T06:36:28.923Z,16.10
2019-05-26T06:38:57.649Z,16.20
2019-05-26T06:41:33.339Z,16.20
2019-05-26T06:43:58.015Z,16.30
2019-05-26T06:46:26.813Z,16.30
2019-05-26T06:48:55.384Z,16.40
2019-05-26T06:51:24.398Z,16.50
2019-05-26T06:53:53.101Z,16.60
2019-05-26T06:56:21.596Z,16.60
2019-05-26T06:58:50.091Z,16.70
2019-05-26T07:01:18.770Z,16.80
2019-05-26T07:03:47.268Z,16.80
2019-05-26T07:06:15.951Z,16.90
2019-05-26T07:08:44.738Z,17.00
2019-05-26T07:11:16.167Z,17.00
2019-05-26T07:13:44.634Z,17.00
2019-05-26T07:16:13.263Z,17.00
2019-05-26T07:18:41.728Z,17.00
2019-05-26T07:21:10.575Z,17.10
2019-05-26T07:23:39.255Z,17.10
2019-05-26T07:26:07.712Z,17.20
2019-05-26T07:28:36.202Z,17.30
2019-05-26T07:31:05.171Z,17.40
2019-05-26T07:33:33.718Z,17.50
2019-05-26T07:36:02.382Z,17.60
2019-05-26T07:38:31.074Z,17.70
2019-05-26T07:40:59.639Z,17.80
2019-05-26T07:43:28.405Z,17.80
2019-05-26T07:46:16.648Z,17.90
2019-05-26T07:48:45.167Z,17.90
2019-05-26T07:51:13.669Z,18.00
2019-05-26T07:53:42.288Z,18.10
2019-05-26T07:56:10.843Z,18.10
2019-05-26T07:58:39.355Z,18.20
2019-05-26T08:01:08.338Z,18.30
2019-05-26T08:03:36.797Z,18.30
2019-05-26T08:06:05.276Z,18.40
2019-05-26T08:08:34.087Z,18.50
2019-05-26T08:11:02.801Z,18.60
2019-05-26T08:13:31.415Z,18.60
2019-05-26T08:15:59.970Z,18.70
2019-05-26T08:18:28.524Z,18.80
2019-05-26T08:20:57.147Z,18.80
2019-05-26T08:23:25.953Z,18.90
2019-05-26T08:25:56.153Z,19.00
2019-05-26T08:28:24.712Z,19.10
2019-05-26T08:30:53.746Z,19.10
2019-05-26T08:33:22.266Z,19.30
2019-05-26T08:35:50.812Z,19.40
2019-05-26T08:38:19.419Z,19.50
2019-05-26T08:40:48.188Z,19.60
2019-05-26T08:43:16.677Z,19.70
2019-05-26T08:45:45.357Z,19.80
2019-05-26T08:48:13.904Z,19.90
2019-05-26T08:50:42.577Z,20.00
2019-05-26T08:53:11.171Z,20.10
2019-05-26T08:55:39.809Z,20.20
2019-05-26T08:58:08.357Z,20.30
2019-05-26T09:00:37.008Z,20.30
2019-05-26T09:03:05.576Z,20.30
2019-05-26T09:08:10.054Z,20.30
2019-05-26T09:10:38.536Z,20.20
2019-05-26T09:13:06.989Z,20.10
2019-05-26T09:15:35.574Z,20.10
2019-05-26T09:18:04.316Z,20.00
2019-05-26T09:20:47.213Z,20.00
2019-05-26T09:23:15.733Z,20.10
2019-05-26T09:25:46.467Z,20.10
2019-05-26T09:28:14.496Z,20.10
2019-05-26T09:30:44.112Z,20.20
2019-05-26T09:33:12.628Z,20.30
2019-05-26T09:35:41.189Z,20.40
2019-05-26T09:38:15.032Z,20.40
2019-05-26T09:40:53.048Z,20.50
2019-05-26T09:43:21.537Z,20.50
2019-05-26T09:45:50.123Z,20.60
2019-05-26T09:48:19.116Z,20.60
2019-05-26T09:51:21.243Z,20.70
2019-05-26T09:54:01.273Z,20.70
2019-05-26T09:56:19.911Z,20.70
2019-05-26T09:59:03.451Z,20.80
2019-05-26T10:01:44.045Z,20.70
2019-05-26T10:04:12.710Z,20.80
2019-05-26T10:06:41.612Z,20.90
2019-05-26T10:09:10.116Z,21.00
2019-05-26T10:11:41.726Z,21.00
2019-05-26T10:14:09.398Z,20.90
2019-05-26T10:16:43.978Z,20.90
2019-05-26T10:19:12.521Z,20.90
2019-05-26T10:21:52.462Z,20.90
2019-05-26T10:24:21.247Z,20.90
2019-05-26T10:26:49.774Z,20.80
2019-05-26T10:29:18.263Z,20.80
2019-05-26T10:31:46.938Z,20.80
2019-05-26T10:34:15.399Z,20.80
2019-05-26T10:36:43.856Z,20.80
2019-05-26T10:39:12.490Z,20.80
2019-05-26T10:41:41.093Z,20.80
2019-05-26T10:44:09.642Z,20.80
2019-05-26T10:46:38.123Z,20.90
2019-05-26T10:49:06.707Z,20.90
2019-05-26T10:51:35.432Z,20.90
2019-05-26T10:54:03.999Z,20.90
2019-05-26T10:56:32.455Z,20.90
2019-05-26T10:59:00.943Z,20.80
2019-05-26T11:01:29.858Z,20.90
2019-05-26T11:03:58.335Z,20.80
2019-05-26T11:06:26.887Z,20.80
2019-05-26T11:08:56.205Z,20.90
2019-05-26T11:11:24.919Z,21.00
2019-05-26T11:14:02.303Z,21.00
2019-05-26T11:16:23.843Z,21.10
2019-05-26T11:18:52.328Z,21.10
2019-05-26T11:21:20.928Z,21.10
2019-05-26T11:23:49.467Z,21.10
2019-05-26T11:26:18.016Z,21.20
2019-05-26T11:28:46.480Z,21.20
2019-05-26T11:31:16.216Z,21.20
2019-05-26T11:33:44.698Z,21.20
2019-05-26T11:36:13.167Z,21.20
2019-05-26T11:38:41.972Z,21.20
2019-05-26T11:41:10.862Z,21.20
2019-05-26T11:43:39.323Z,21.20
2019-05-26T11:46:07.896Z,21.30
2019-05-26T11:48:39.209Z,21.30
2019-05-26T11:51:06.797Z,21.40
2019-05-26T11:53:35.524Z,21.40
2019-05-26T11:56:04.088Z,21.30
2019-05-26T11:58:32.688Z,21.30
2019-05-26T12:01:01.611Z,21.20
2019-05-26T12:03:30.095Z,21.20
2019-05-26T12:05:58.632Z,21.20
2019-05-26T12:08:27.208Z,21.30
2019-05-26T12:10:58.360Z,21.40
2019-05-26T12:13:26.040Z,21.40
2019-05-26T12:15:54.614Z,21.40
2019-05-26T12:18:23.155Z,21.50
2019-05-26T12:20:51.815Z,21.50
2019-05-26T12:23:20.359Z,21.60
2019-05-26T12:25:48.914Z,21.70
2019-05-26T12:28:17.434Z,21.80
2019-05-26T12:31:05.342Z,21.90
2019-05-26T12:33:33.882Z,21.90
2019-05-26T12:36:02.420Z,22.00
2019-05-26T12:38:31.132Z,22.00
2019-05-26T12:40:59.786Z,22.00
2019-05-26T12:43:28.248Z,21.90
2019-05-26T12:45:56.819Z,21.90
2019-05-26T12:48:25.394Z,21.90
2019-05-26T12:50:54.136Z,22.00
2019-05-26T12:53:22.906Z,22.00
2019-05-26T12:55:51.433Z,22.00
2019-05-26T12:58:19.888Z,22.00
2019-05-26T13:00:52.147Z,22.00
2019-05-26T13:03:18.783Z,22.00
2019-05-26T13:05:47.315Z,22.00
2019-05-26T13:08:16.025Z,22.00
2019-05-26T13:10:44.908Z,22.00
2019-05-26T13:13:13.364Z,21.90
2019-05-26T13:15:41.988Z,22.00
2019-05-26T13:18:10.451Z,22.00
2019-05-26T13:20:39.141Z,22.00
2019-05-26T13:23:07.926Z,22.00
2019-05-26T13:25:36.490Z,22.00
2019-05-26T13:28:05.481Z,22.00
2019-05-26T13:30:34.716Z,22.10
2019-05-26T13:33:03.297Z,22.00
2019-05-26T13:35:34.793Z,22.10
2019-05-26T13:38:02.910Z,22.10
2019-05-26T13:40:31.559Z,22.20
2019-05-26T13:43:07.703Z,22.20
2019-05-26T13:45:36.186Z,22.20
2019-05-26T13:48:04.821Z,22.30
2019-05-26T13:50:33.800Z,22.30
2019-05-26T13:53:02.270Z,22.30
2019-05-26T13:55:30.812Z,22.30
2019-05-26T13:57:59.363Z,22.30
2019-05-26T14:00:28.069Z,22.30
2019-05-26T14:02:56.629Z,22.30
2019-05-26T14:05:25.159Z,22.30
2019-05-26T14:07:53.684Z,22.30
2019-05-26T14:10:34.835Z,22.30
2019-05-26T14:13:04.435Z,22.30
2019-05-26T14:15:38.478Z,22.30
2019-05-26T14:18:06.256Z,22.30
2019-05-26T14:20:37.051Z,22.30
2019-05-26T14:23:07.290Z,22.30
2019-05-26T14:25:36.269Z,22.30
2019-05-26T14:28:05.924Z,22.20
2019-05-26T14:30:35.055Z,22.20
2019-05-26T14:33:03.738Z,22.10
2019-05-26T14:35:32.256Z,22.10
2019-05-26T14:38:00.726Z,22.00
2019-05-26T14:40:30.388Z,22.00
2019-05-26T14:42:58.913Z,22.00
2019-05-26T14:45:27.435Z,21.90
2019-05-26T14:48:15.450Z,21.90
2019-05-26T14:50:44.272Z,21.90
2019-05-26T14:53:12.888Z,21.80
2019-05-26T14:55:41.387Z,21.80
2019-05-26T14:58:15.826Z,21.80
2019-05-26T15:00:40.302Z,21.80
2019-05-26T15:03:08.873Z,21.90
2019-05-26T15:05:37.409Z,21.80
2019-05-26T15:08:25.355Z,21.80
2019-05-26T15:10:53.817Z,21.80
2019-05-26T15:13:22.289Z,21.90
2019-05-26T15:15:50.858Z,21.90
2019-05-26T15:18:19.303Z,21.90
2019-05-26T15:20:47.769Z,22.00
2019-05-26T15:23:16.283Z,22.00
2019-05-26T15:25:44.808Z,21.90
2019-05-26T15:28:13.287Z,21.80
2019-05-26T15:30:42.072Z,21.80
2019-05-26T15:33:10.533Z,21.90
2019-05-26T15:35:38.996Z,21.90
2019-05-26T15:38:07.646Z,22.00
2019-05-26T15:40:36.400Z,22.10
2019-05-26T15:43:05.000Z,22.20
2019-05-26T15:45:33.635Z,22.30
2019-05-26T15:48:02.089Z,22.30
2019-05-26T15:50:30.792Z,22.30
2019-05-26T15:52:59.379Z,22.30
2019-05-26T15:55:27.915Z,22.30
2019-05-26T15:57:56.385Z,22.40
2019-05-26T16:00:27.260Z,22.40
2019-05-26T16:02:55.808Z,22.50
2019-05-26T16:05:24.325Z,22.60
2019-05-26T16:07:52.924Z,22.60
2019-05-26T16:10:21.415Z,22.50
2019-05-26T16:12:49.883Z,22.50
2019-05-26T16:15:19.043Z,22.50
2019-05-26T16:17:47.857Z,22.50
2019-05-26T16:20:17.113Z,22.50
2019-05-26T16:22:58.815Z,22.40
2019-05-26T16:25:26.495Z,22.20
2019-05-26T16:27:54.959Z,21.90
2019-05-26T16:30:24.041Z,21.70
2019-05-26T16:32:52.492Z,21.50
2019-05-26T16:35:21.025Z,21.30
2019-05-26T16:37:49.660Z,21.20
2019-05-26T16:40:18.482Z,21.00
2019-05-26T16:42:47.060Z,20.90
2019-05-26T16:45:15.966Z,20.80
2019-05-26T16:47:44.488Z,20.70
2019-05-26T16:50:32.744Z,20.70
2019-05-26T16:53:01.810Z,20.60
2019-05-26T16:55:30.394Z,20.50
2019-05-26T16:57:59.110Z,20.50
2019-05-26T17:00:27.773Z,20.50
2019-05-26T17:02:56.234Z,20.50
2019-05-26T17:05:24.872Z,20.50
2019-05-26T17:07:53.467Z,20.50
2019-05-26T17:10:22.166Z,20.40
2019-05-26T17:12:50.800Z,20.40
2019-05-26T17:15:19.719Z,20.40
2019-05-26T17:17:48.283Z,20.30
2019-05-26T17:20:17.879Z,20.20
2019-05-26T17:22:49.409Z,20.20
2019-05-26T17:25:17.078Z,20.10
2019-05-26T17:27:45.662Z,20.10
2019-05-26T17:30:15.033Z,20.00
2019-05-26T17:32:45.867Z,19.90
2019-05-26T17:35:14.542Z,19.80
2019-05-26T17:37:43.124Z,19.70
2019-05-26T17:40:22.932Z,19.70
2019-05-26T17:42:52.694Z,19.60
2019-05-26T17:45:21.306Z,19.40
2019-05-26T17:47:49.922Z,19.30
2019-05-26T17:50:18.928Z,19.20
2019-05-26T17:52:47.538Z,19.10
2019-05-26T17:55:16.759Z,19.10
2019-05-26T17:57:45.219Z,19.00
2019-05-26T18:00:15.228Z,18.90
2019-05-26T18:02:49.998Z,18.90
2019-05-26T18:05:18.645Z,18.80
2019-05-26T18:07:47.126Z,18.80
2019-05-26T18:10:17.257Z,18.70
2019-05-26T18:12:45.734Z,18.70
2019-05-26T18:15:14.338Z,18.70
2019-05-26T18:17:47.677Z,18.60
2019-05-26T18:20:13.508Z,18.70
2019-05-26T18:22:42.130Z,18.70
2019-05-26T18:25:10.894Z,18.60
2019-05-26T18:27:39.448Z,18.50
2019-05-26T18:30:08.370Z,18.50
2019-05-26T18:32:37.336Z,18.40
2019-05-26T18:35:06.860Z,18.30
2019-05-26T18:37:35.496Z,18.20
2019-05-26T18:40:19.465Z,18.10
2019-05-26T18:42:47.994Z,18.10
2019-05-26T18:45:16.701Z,18.00
2019-05-26T18:47:45.183Z,17.90
2019-05-26T18:50:13.872Z,17.80
2019-05-26T18:52:42.335Z,17.60
2019-05-26T18:55:11.136Z,17.50
2019-05-26T18:57:39.728Z,17.30
2019-05-26T19:00:09.038Z,17.20
2019-05-26T19:02:37.849Z,17.10
2019-05-26T19:05:06.645Z,17.00
2019-05-26T19:07:35.132Z,16.90
2019-05-26T19:10:07.511Z,16.80
2019-05-26T19:12:44.537Z,16.80
2019-05-26T19:15:13.765Z,16.70
2019-05-26T19:17:42.286Z,16.70
2019-05-26T19:20:17.010Z,16.70
2019-05-26T19:22:45.520Z,16.60
2019-05-26T19:25:14.193Z,16.60
2019-05-26T19:27:42.748Z,16.60
2019-05-26T19:30:11.964Z,16.60
2019-05-26T19:32:40.618Z,16.50
2019-05-26T19:35:10.363Z,16.50
2019-05-26T19:37:38.965Z,16.40
2019-05-26T19:40:09.176Z,16.40
2019-05-26T19:42:37.701Z,16.30
2019-05-26T19:45:07.640Z,16.30
2019-05-26T19:47:36.168Z,16.20
2019-05-26T19:50:06.703Z,16.20
2019-05-26T19:52:50.797Z,16.20
2019-05-26T19:55:19.454Z,16.10
2019-05-26T19:57:48.521Z,16.10
2019-05-26T20:00:18.622Z,16.10
2019-05-26T20:02:47.247Z,16.00
2019-05-26T20:05:15.889Z,15.90
2019-05-26T20:07:44.551Z,15.90
2019-05-26T20:10:19.597Z,15.90
2019-05-26T20:12:48.396Z,15.90
2019-05-26T20:15:20.533Z,15.90
2019-05-26T20:17:49.226Z,15.80
2019-05-26T20:20:17.978Z,15.80
2019-05-26T20:23:05.170Z,15.80
2019-05-26T20:25:33.826Z,15.80
2019-05-26T20:28:02.353Z,15.80
2019-05-26T20:30:43.448Z,15.70
2019-05-26T20:33:11.903Z,15.70
2019-05-26T20:35:40.372Z,15.70
2019-05-26T20:38:10.950Z,15.70
2019-05-26T20:40:42.221Z,15.70
2019-05-26T20:43:10.768Z,15.70
2019-05-26T20:45:39.591Z,15.70
2019-05-26T20:48:38.374Z,15.70
2019-05-26T20:51:07.004Z,15.70
2019-05-26T20:53:35.591Z,15.70
2019-05-26T20:56:04.120Z,15.70
2019-05-26T20:58:38.787Z,15.70
2019-05-26T21:01:07.532Z,15.60
2019-05-26T21:03:35.998Z,15.70
2019-05-26T21:06:05.156Z,15.70
2019-05-26T21:08:33.618Z,15.70
2019-05-26T21:11:02.220Z,15.70
2019-05-26T21:13:30.785Z,15.60
2019-05-26T21:15:59.319Z,15.60
2019-05-26T21:18:27.851Z,15.70
2019-05-26T21:20:59.817Z,15.70
2019-05-26T21:23:28.290Z,15.70
2019-05-26T21:25:56.749Z,15.70
2019-05-26T21:28:25.311Z,15.70
2019-05-26T21:31:03.150Z,15.70
2019-05-26T21:33:31.837Z,15.80
2019-05-26T21:36:00.323Z,15.70
2019-05-26T21:38:28.858Z,15.70
2019-05-26T21:41:06.519Z,15.80
2019-05-26T21:43:35.058Z,15.70
2019-05-26T21:46:16.010Z,15.80
2019-05-26T21:48:44.543Z,15.80
2019-05-26T21:51:19.213Z,15.80
2019-05-26T21:53:47.848Z,15.80
2019-05-26T21:56:16.379Z,15.80
2019-05-26T21:58:44.914Z,15.80
2019-05-26T22:01:25.607Z,15.80
2019-05-26T22:03:54.149Z,15.80
2019-05-26T22:06:22.876Z,15.70
2019-05-26T22:08:51.409Z,15.80
2019-05-26T22:11:19.898Z,15.80
2019-05-26T22:13:48.421Z,15.70
2019-05-26T22:16:16.903Z,15.80
2019-05-26T22:18:45.379Z,15.70
2019-05-26T22:21:13.867Z,15.70
2019-05-26T22:23:42.361Z,15.70
2019-05-26T22:26:10.888Z,15.70
2019-05-26T22:28:39.438Z,15.60
2019-05-26T22:31:08.227Z,15.60
2019-05-26T22:33:36.699Z,15.60
2019-05-26T22:36:05.312Z,15.50
2019-05-26T22:38:33.979Z,15.50
2019-05-26T22:41:17.516Z,15.40
2019-05-26T22:43:46.063Z,15.40
2019-05-26T22:46:14.522Z,15.30
2019-05-26T22:48:43.022Z,15.30
2019-05-26T22:51:12.215Z,15.30
2019-05-26T22:53:40.752Z,15.30
2019-05-26T22:56:09.244Z,15.20
2019-05-26T22:59:05.187Z,15.20
2019-05-26T23:01:33.671Z,15.20
2019-05-26T23:04:03.288Z,15.20
2019-05-26T23:06:44.624Z,15.20
2019-05-26T23:09:13.076Z,15.20
2019-05-26T23:11:41.574Z,15.20
2019-05-26T23:14:13.269Z,15.20
2019-05-26T23:16:41.797Z,15.20
2019-05-26T23:19:18.732Z,15.20
2019-05-26T23:21:40.595Z,15.20
2019-05-26T23:24:09.588Z,15.20
2019-05-26T23:26:38.107Z,15.20
2019-05-26T23:29:06.983Z,15.20
2019-05-26T23:31:35.544Z,15.20
2019-05-26T23:34:04.020Z,15.20
2019-05-26T23:36:32.647Z,15.20
2019-05-26T23:39:01.310Z,15.20
2019-05-26T23:41:29.872Z,15.20
2019-05-26T23:43:58.391Z,15.20
2019-05-26T23:46:26.869Z,15.20
2019-05-26T23:48:55.492Z,15.20
2019-05-26T23:51:27.086Z,15.20
2019-05-26T23:53:55.678Z,15.20
2019-05-26T23:56:24.139Z,15.20
2019-05-26T23:58:53.235Z,15.20
